sensor_id;sensor_type;location;lat;lon;timestamp;pressure;altitude;pressure_sealevel;temperature;humidity
72423;BME280;60413;55.658;37.498;2022-07-24T00:00:46;98607.84;;;20.45;100.00
72423;BME280;60413;55.658;37.498;2022-07-24T00:03:12;98606.91;;;20.41;100.00
72423;BME280;60413;55.658;37.498;2022-07-24T00:05:38;98616.81;;;20.49;100.00
72423;BME280;60413;55.658;37.498;2022-07-24T00:08:04;98592.59;;;20.37;100.00
72423;BME280;60413;55.658;37.498;2022-07-24T00:10:29;98608.78;;;20.41;100.00
72423;BME280;60413;55.658;37.498;2022-07-24T00:12:56;98631.16;;;20.53;100.00
72423;BME280;60413;55.658;37.498;2022-07-24T00:15:22;98591.31;;;20.26;100.00
72423;BME280;60413;55.658;37.498;2022-07-24T00:17:48;98619.66;;;20.44;100.00
72423;BME280;60413;55.658;37.498;2022-07-24T00:20:14;98603.28;;;20.28;100.00
72423;BME280;60413;55.658;37.498;2022-07-24T00:22:42;98595.41;;;20.14;100.00
72423;BME280;60413;55.658;37.498;2022-07-24T00:25:08;98600.63;;;20.28;100.00
72423;BME280;60413;55.658;37.498;2022-07-24T00:27:34;98636.84;;;20.43;100.00
72423;BME280;60413;55.658;37.498;2022-07-24T00:30:00;98617.47;;;20.20;100.00
72423;BME280;60413;55.658;37.498;2022-07-24T00:32:28;98624.84;;;20.14;100.00
72423;BME280;60413;55.658;37.498;2022-07-24T00:34:54;98602.00;;;19.99;100.00
72423;BME280;60413;55.658;37.498;2022-07-24T00:37:22;98649.41;;;20.25;100.00
72423;BME280;60413;55.658;37.498;2022-07-24T00:39:50;98594.28;;;19.89;100.00
72423;BME280;60413;55.658;37.498;2022-07-24T00:42:21;98653.63;;;20.17;100.00
72423;BME280;60413;55.658;37.498;2022-07-24T00:44:47;98619.78;;;20.04;100.00
72423;BME280;60413;55.658;37.498;2022-07-24T00:47:13;98655.38;;;20.13;100.00
72423;BME280;60413;55.658;37.498;2022-07-24T00:49:39;98637.75;;;20.04;100.00
72423;BME280;60413;55.658;37.498;2022-07-24T00:52:05;98650.66;;;20.02;100.00
72423;BME280;60413;55.658;37.498;2022-07-24T00:54:31;98626.97;;;19.77;100.00
72423;BME280;60413;55.658;37.498;2022-07-24T00:56:57;98591.50;;;19.54;100.00
72423;BME280;60413;55.658;37.498;2022-07-24T00:59:23;98587.75;;;19.55;100.00
72423;BME280;60413;55.658;37.498;2022-07-24T01:01:49;98618.81;;;19.83;100.00
72423;BME280;60413;55.658;37.498;2022-07-24T01:04:18;98642.31;;;20.03;100.00
72423;BME280;60413;55.658;37.498;2022-07-24T01:06:46;98581.31;;;19.65;100.00
72423;BME280;60413;55.658;37.498;2022-07-24T01:09:12;98640.25;;;20.17;100.00
72423;BME280;60413;55.658;37.498;2022-07-24T01:11:38;98592.88;;;19.92;100.00
72423;BME280;60413;55.658;37.498;2022-07-24T01:14:05;98574.94;;;19.75;100.00
72423;BME280;60413;55.658;37.498;2022-07-24T01:16:33;98626.41;;;20.15;100.00
72423;BME280;60413;55.658;37.498;2022-07-24T01:18:59;98601.22;;;19.99;100.00
72423;BME280;60413;55.658;37.498;2022-07-24T01:21:26;98615.56;;;20.12;100.00
72423;BME280;60413;55.658;37.498;2022-07-24T01:23:51;98593.66;;;20.01;100.00
72423;BME280;60413;55.658;37.498;2022-07-24T01:26:17;98644.22;;;20.29;100.00
72423;BME280;60413;55.658;37.498;2022-07-24T01:28:43;98596.50;;;19.96;100.00
72423;BME280;60413;55.658;37.498;2022-07-24T01:31:09;98615.56;;;20.12;100.00
72423;BME280;60413;55.658;37.498;2022-07-24T01:33:35;98601.88;;;20.22;100.00
72423;BME280;60413;55.658;37.498;2022-07-24T01:36:02;98578.56;;;20.23;100.00
72423;BME280;60413;55.658;37.498;2022-07-24T01:38:28;98629.56;;;20.61;100.00
72423;BME280;60413;55.658;37.498;2022-07-24T01:40:54;98618.56;;;20.63;100.00
72423;BME280;60413;55.658;37.498;2022-07-24T01:43:20;98582.66;;;20.64;100.00
72423;BME280;60413;55.658;37.498;2022-07-24T01:45:46;98605.47;;;20.79;100.00
72423;BME280;60413;55.658;37.498;2022-07-24T01:48:11;98625.63;;;20.85;100.00
72423;BME280;60413;55.658;37.498;2022-07-24T01:50:37;98608.75;;;20.84;100.00
72423;BME280;60413;55.658;37.498;2022-07-24T01:53:03;98601.53;;;20.76;100.00
72423;BME280;60413;55.658;37.498;2022-07-24T01:55:31;98653.66;;;21.05;100.00
72423;BME280;60413;55.658;37.498;2022-07-24T01:57:57;98654.88;;;21.07;100.00
72423;BME280;60413;55.658;37.498;2022-07-24T02:00:23;98610.84;;;20.79;100.00
72423;BME280;60413;55.658;37.498;2022-07-24T02:02:49;98614.31;;;20.70;100.00
72423;BME280;60413;55.658;37.498;2022-07-24T02:05:15;98642.50;;;20.85;100.00
72423;BME280;60413;55.658;37.498;2022-07-24T02:07:42;98614.16;;;20.67;100.00
72423;BME280;60413;55.658;37.498;2022-07-24T02:10:11;98632.53;;;20.95;100.00
72423;BME280;60413;55.658;37.498;2022-07-24T02:12:37;98617.66;;;21.15;100.00
72423;BME280;60413;55.658;37.498;2022-07-24T02:15:04;98659.38;;;21.80;100.00
72423;BME280;60413;55.658;37.498;2022-07-24T02:17:30;98622.38;;;22.16;100.00
72423;BME280;60413;55.658;37.498;2022-07-24T02:19:56;98625.50;;;22.60;100.00
72423;BME280;60413;55.658;37.498;2022-07-24T02:22:22;98631.38;;;22.74;100.00
72423;BME280;60413;55.658;37.498;2022-07-24T02:24:48;98644.69;;;22.71;100.00
72423;BME280;60413;55.658;37.498;2022-07-24T02:27:14;98671.66;;;23.41;100.00
72423;BME280;60413;55.658;37.498;2022-07-24T02:29:42;98664.38;;;23.66;100.00
72423;BME280;60413;55.658;37.498;2022-07-24T02:32:08;98616.88;;;23.00;100.00
72423;BME280;60413;55.658;37.498;2022-07-24T02:34:34;98630.50;;;22.70;100.00
72423;BME280;60413;55.658;37.498;2022-07-24T02:37:00;98664.84;;;23.56;100.00
72423;BME280;60413;55.658;37.498;2022-07-24T02:39:26;98657.66;;;24.63;100.00
72423;BME280;60413;55.658;37.498;2022-07-24T02:41:52;98646.56;;;25.40;100.00
72423;BME280;60413;55.658;37.498;2022-07-24T02:44:18;98602.59;;;25.56;100.00
72423;BME280;60413;55.658;37.498;2022-07-24T02:46:44;98627.91;;;25.19;100.00
72423;BME280;60413;55.658;37.498;2022-07-24T02:49:12;98604.66;;;24.54;100.00
72423;BME280;60413;55.658;37.498;2022-07-24T02:51:45;98621.75;;;24.05;100.00
72423;BME280;60413;55.658;37.498;2022-07-24T02:54:11;98593.56;;;23.50;100.00
72423;BME280;60413;55.658;37.498;2022-07-24T02:56:41;98639.94;;;23.47;100.00
72423;BME280;60413;55.658;37.498;2022-07-24T02:59:07;98636.34;;;23.18;100.00
72423;BME280;60413;55.658;37.498;2022-07-24T03:01:33;98602.28;;;23.10;100.00
72423;BME280;60413;55.658;37.498;2022-07-24T03:04:04;98617.69;;;24.24;100.00
72423;BME280;60413;55.658;37.498;2022-07-24T03:06:34;98593.31;;;25.21;100.00
72423;BME280;60413;55.658;37.498;2022-07-24T03:09:01;98603.31;;;26.43;100.00
72423;BME280;60413;55.658;37.498;2022-07-24T03:11:27;98597.63;;;27.37;100.00
72423;BME280;60413;55.658;37.498;2022-07-24T03:13:55;98604.53;;;28.18;100.00
72423;BME280;60413;55.658;37.498;2022-07-24T03:16:26;98608.56;;;27.71;100.00
72423;BME280;60413;55.658;37.498;2022-07-24T03:18:54;98602.06;;;26.60;100.00
72423;BME280;60413;55.658;37.498;2022-07-24T03:21:20;98605.13;;;26.00;100.00
72423;BME280;60413;55.658;37.498;2022-07-24T03:23:49;98622.00;;;26.32;100.00
72423;BME280;60413;55.658;37.498;2022-07-24T03:26:15;98593.94;;;27.03;100.00
72423;BME280;60413;55.658;37.498;2022-07-24T03:28:41;98639.00;;;28.18;100.00
72423;BME280;60413;55.658;37.498;2022-07-24T03:31:07;98611.75;;;29.12;100.00
72423;BME280;60413;55.658;37.498;2022-07-24T03:33:40;98607.00;;;30.17;100.00
72423;BME280;60413;55.658;37.498;2022-07-24T03:36:07;98614.97;;;30.87;100.00
72423;BME280;60413;55.658;37.498;2022-07-24T03:38:34;98630.19;;;31.27;100.00
72423;BME280;60413;55.658;37.498;2022-07-24T03:41:00;98618.53;;;31.41;100.00
72423;BME280;60413;55.658;37.498;2022-07-24T03:43:26;98592.41;;;31.65;100.00
72423;BME280;60413;55.658;37.498;2022-07-24T03:45:52;98583.75;;;32.10;94.75
72423;BME280;60413;55.658;37.498;2022-07-24T03:48:18;98590.34;;;32.05;95.52
72423;BME280;60413;55.658;37.498;2022-07-24T03:50:43;98603.94;;;32.90;90.22
72423;BME280;60413;55.658;37.498;2022-07-24T03:53:09;98625.63;;;33.15;87.46
72423;BME280;60413;55.658;37.498;2022-07-24T03:55:35;98616.47;;;33.33;85.09
72423;BME280;60413;55.658;37.498;2022-07-24T03:58:01;98590.56;;;33.52;80.94
72423;BME280;60413;55.658;37.498;2022-07-24T04:00:27;98613.88;;;33.64;82.61
72423;BME280;60413;55.658;37.498;2022-07-24T04:02:55;98624.97;;;33.87;79.86
72423;BME280;60413;55.658;37.498;2022-07-24T04:05:21;98590.25;;;34.15;76.34
72423;BME280;60413;55.658;37.498;2022-07-24T04:07:47;98581.81;;;34.37;74.60
72423;BME280;60413;55.658;37.498;2022-07-24T04:10:13;98576.00;;;34.58;73.47
72423;BME280;60413;55.658;37.498;2022-07-24T04:12:39;98620.53;;;34.89;71.67
72423;BME280;60413;55.658;37.498;2022-07-24T04:15:05;98598.34;;;34.84;71.66
72423;BME280;60413;55.658;37.498;2022-07-24T04:17:31;98590.41;;;34.89;71.01
72423;BME280;60413;55.658;37.498;2022-07-24T04:19:57;98594.09;;;35.03;69.94
72423;BME280;60413;55.658;37.498;2022-07-24T04:22:23;98576.69;;;35.17;67.91
72423;BME280;60413;55.658;37.498;2022-07-24T04:24:49;98624.44;;;35.83;67.24
72423;BME280;60413;55.658;37.498;2022-07-24T04:27:15;98602.53;;;35.59;66.16
72423;BME280;60413;55.658;37.498;2022-07-24T04:29:41;98631.19;;;35.98;66.73
72423;BME280;60413;55.658;37.498;2022-07-24T04:32:09;98617.09;;;36.37;65.07
72423;BME280;60413;55.658;37.498;2022-07-24T04:34:37;98595.34;;;35.89;65.75
72423;BME280;60413;55.658;37.498;2022-07-24T04:37:06;98567.38;;;34.32;71.15
72423;BME280;60413;55.658;37.498;2022-07-24T04:39:35;98597.13;;;33.58;78.27
72423;BME280;60413;55.658;37.498;2022-07-24T04:42:05;98587.50;;;33.84;77.50
72423;BME280;60413;55.658;37.498;2022-07-24T04:44:31;98624.13;;;34.25;75.28
72423;BME280;60413;55.658;37.498;2022-07-24T04:46:58;98591.00;;;34.50;74.94
72423;BME280;60413;55.658;37.498;2022-07-24T04:49:26;98568.28;;;34.80;71.43
72423;BME280;60413;55.658;37.498;2022-07-24T04:51:52;98587.94;;;35.22;69.58
72423;BME280;60413;55.658;37.498;2022-07-24T04:54:18;98595.09;;;35.60;66.06
72423;BME280;60413;55.658;37.498;2022-07-24T04:56:44;98597.88;;;35.80;65.00
72423;BME280;60413;55.658;37.498;2022-07-24T04:59:10;98607.06;;;35.90;65.09
72423;BME280;60413;55.658;37.498;2022-07-24T05:01:36;98618.66;;;36.17;63.65
72423;BME280;60413;55.658;37.498;2022-07-24T05:04:02;98606.81;;;36.24;63.61
72423;BME280;60413;55.658;37.498;2022-07-24T05:06:30;98592.16;;;36.31;63.82
72423;BME280;60413;55.658;37.498;2022-07-24T05:08:56;98600.41;;;36.84;61.04
72423;BME280;60413;55.658;37.498;2022-07-24T05:11:22;98576.78;;;37.03;60.03
72423;BME280;60413;55.658;37.498;2022-07-24T05:13:57;98588.50;;;37.66;57.76
72423;BME280;60413;55.658;37.498;2022-07-24T05:16:25;98573.53;;;37.37;58.02
72423;BME280;60413;55.658;37.498;2022-07-24T05:18:51;98586.41;;;37.40;56.85
72423;BME280;60413;55.658;37.498;2022-07-24T05:21:36;98564.75;;;36.97;57.94
72423;BME280;60413;55.658;37.498;2022-07-24T05:24:13;98609.09;;;37.44;57.82
72423;BME280;60413;55.658;37.498;2022-07-24T05:27:04;98562.66;;;37.63;56.27
72423;BME280;60413;55.658;37.498;2022-07-24T05:29:58;98567.81;;;37.61;54.48
72423;BME280;60413;55.658;37.498;2022-07-24T05:32:29;98566.94;;;37.35;55.83
72423;BME280;60413;55.658;37.498;2022-07-24T05:34:57;98573.56;;;37.67;55.40
72423;BME280;60413;55.658;37.498;2022-07-24T05:37:43;98563.16;;;37.74;53.83
72423;BME280;60413;55.658;37.498;2022-07-24T05:40:37;98577.75;;;38.13;53.65
72423;BME280;60413;55.658;37.498;2022-07-24T05:43:08;98585.13;;;38.42;53.55
72423;BME280;60413;55.658;37.498;2022-07-24T05:45:46;98594.31;;;37.97;55.01
72423;BME280;60413;55.658;37.498;2022-07-24T05:48:35;98557.06;;;38.22;54.40
72423;BME280;60413;55.658;37.498;2022-07-24T05:51:21;98556.66;;;38.36;54.97
72423;BME280;60413;55.658;37.498;2022-07-24T05:53:47;98581.38;;;38.87;53.93
72423;BME280;60413;55.658;37.498;2022-07-24T05:56:16;98581.19;;;38.30;51.81
72423;BME280;60413;55.658;37.498;2022-07-24T05:58:44;98581.50;;;38.58;52.20
72423;BME280;60413;55.658;37.498;2022-07-24T06:01:13;98555.97;;;38.19;55.36
72423;BME280;60413;55.658;37.498;2022-07-24T06:03:38;98558.63;;;38.23;53.87
72423;BME280;60413;55.658;37.498;2022-07-24T06:06:07;98591.75;;;38.32;51.69
72423;BME280;60413;55.658;37.498;2022-07-24T06:08:42;98585.47;;;38.57;50.93
72423;BME280;60413;55.658;37.498;2022-07-24T06:11:08;98541.56;;;38.28;50.63
72423;BME280;60413;55.658;37.498;2022-07-24T06:13:36;98588.66;;;38.17;51.33
72423;BME280;60413;55.658;37.498;2022-07-24T06:16:02;98564.53;;;38.08;51.82
72423;BME280;60413;55.658;37.498;2022-07-24T06:18:34;98571.22;;;37.94;52.37
72423;BME280;60413;55.658;37.498;2022-07-24T06:21:00;98532.81;;;37.19;54.26
72423;BME280;60413;55.658;37.498;2022-07-24T06:24:02;98536.94;;;37.40;52.96
72423;BME280;60413;55.658;37.498;2022-07-24T06:26:31;98525.03;;;36.85;56.71
72423;BME280;60413;55.658;37.498;2022-07-24T06:29:17;98525.13;;;36.81;57.03
72423;BME280;60413;55.658;37.498;2022-07-24T06:31:43;98539.84;;;37.20;55.00
72423;BME280;60413;55.658;37.498;2022-07-24T06:34:22;98529.94;;;37.52;50.15
72423;BME280;60413;55.658;37.498;2022-07-24T06:36:57;98563.03;;;37.49;48.37
72423;BME280;60413;55.658;37.498;2022-07-24T06:39:42;98553.97;;;37.64;48.52
72423;BME280;60413;55.658;37.498;2022-07-24T06:42:17;98506.81;;;37.66;48.07
72423;BME280;60413;55.658;37.498;2022-07-24T06:44:43;98539.81;;;37.79;49.30
72423;BME280;60413;55.658;37.498;2022-07-24T06:47:12;98534.09;;;37.73;47.92
72423;BME280;60413;55.658;37.498;2022-07-24T06:49:41;98526.72;;;37.70;45.98
72423;BME280;60413;55.658;37.498;2022-07-24T06:52:17;98536.81;;;38.67;42.90
72423;BME280;60413;55.658;37.498;2022-07-24T06:54:45;98536.47;;;38.39;44.19
72423;BME280;60413;55.658;37.498;2022-07-24T06:57:14;98526.09;;;37.92;47.61
72423;BME280;60413;55.658;37.498;2022-07-24T06:59:40;98525.66;;;37.93;46.36
72423;BME280;60413;55.658;37.498;2022-07-24T07:02:12;98554.88;;;38.29;46.08
72423;BME280;60413;55.658;37.498;2022-07-24T07:04:43;98535.28;;;38.40;44.98
72423;BME280;60413;55.658;37.498;2022-07-24T07:07:09;98528.84;;;37.92;46.06
72423;BME280;60413;55.658;37.498;2022-07-24T07:09:35;98532.38;;;38.05;47.07
72423;BME280;60413;55.658;37.498;2022-07-24T07:12:10;98533.88;;;37.80;47.02
72423;BME280;60413;55.658;37.498;2022-07-24T07:14:36;98501.75;;;37.35;45.60
72423;BME280;60413;55.658;37.498;2022-07-24T07:17:02;98501.16;;;36.98;46.50
72423;BME280;60413;55.658;37.498;2022-07-24T07:20:07;98522.00;;;37.41;44.14
72423;BME280;60413;55.658;37.498;2022-07-24T07:22:43;98509.50;;;36.78;46.67
72423;BME280;60413;55.658;37.498;2022-07-24T07:25:10;98492.25;;;35.92;49.07
72423;BME280;60413;55.658;37.498;2022-07-24T07:27:37;98493.13;;;35.05;54.39
72423;BME280;60413;55.658;37.498;2022-07-24T07:30:12;98480.94;;;35.10;55.26
72423;BME280;60413;55.658;37.498;2022-07-24T07:32:39;98486.53;;;35.46;54.54
72423;BME280;60413;55.658;37.498;2022-07-24T07:35:08;98486.38;;;36.10;52.12
72423;BME280;60413;55.658;37.498;2022-07-24T07:37:34;98540.06;;;36.80;51.02
72423;BME280;60413;55.658;37.498;2022-07-24T07:40:00;98481.34;;;36.90;49.97
72423;BME280;60413;55.658;37.498;2022-07-24T07:42:27;98488.34;;;36.46;51.31
72423;BME280;60413;55.658;37.498;2022-07-24T07:44:53;98492.00;;;36.72;52.80
72423;BME280;60413;55.658;37.498;2022-07-24T07:47:18;98473.88;;;36.91;50.34
72423;BME280;60413;55.658;37.498;2022-07-24T07:49:44;98496.72;;;37.17;48.61
72423;BME280;60413;55.658;37.498;2022-07-24T07:52:14;98479.66;;;36.80;50.59
72423;BME280;60413;55.658;37.498;2022-07-24T07:54:42;98474.50;;;36.66;49.42
72423;BME280;60413;55.658;37.498;2022-07-24T07:57:22;98467.41;;;36.35;52.11
72423;BME280;60413;55.658;37.498;2022-07-24T07:59:50;98486.50;;;36.23;53.82
72423;BME280;60413;55.658;37.498;2022-07-24T08:02:17;98460.03;;;35.79;56.44
72423;BME280;60413;55.658;37.498;2022-07-24T08:04:45;98512.38;;;36.22;54.12
72423;BME280;60413;55.658;37.498;2022-07-24T08:07:11;98486.97;;;36.01;55.08
72423;BME280;60413;55.658;37.498;2022-07-24T08:09:40;98477.13;;;36.20;53.08
72423;BME280;60413;55.658;37.498;2022-07-24T08:12:08;98466.97;;;35.84;56.23
72423;BME280;60413;55.658;37.498;2022-07-24T08:14:36;98481.22;;;35.95;54.39
72423;BME280;60413;55.658;37.498;2022-07-24T08:17:07;98490.47;;;36.02;53.40
72423;BME280;60413;55.658;37.498;2022-07-24T08:19:36;98456.75;;;36.21;53.43
72423;BME280;60413;55.658;37.498;2022-07-24T08:22:11;98459.00;;;36.26;53.40
72423;BME280;60413;55.658;37.498;2022-07-24T08:24:43;98501.09;;;35.99;51.74
72423;BME280;60413;55.658;37.498;2022-07-24T08:27:12;98479.63;;;34.74;57.37
72423;BME280;60413;55.658;37.498;2022-07-24T08:29:37;98470.53;;;35.01;56.45
72423;BME280;60413;55.658;37.498;2022-07-24T08:32:04;98462.75;;;35.19;55.81
72423;BME280;60413;55.658;37.498;2022-07-24T08:34:30;98449.13;;;35.16;57.75
72423;BME280;60413;55.658;37.498;2022-07-24T08:36:56;98470.91;;;35.63;58.40
72423;BME280;60413;55.658;37.498;2022-07-24T08:39:22;98449.09;;;35.39;56.98
72423;BME280;60413;55.658;37.498;2022-07-24T08:41:50;98450.00;;;35.73;56.71
72423;BME280;60413;55.658;37.498;2022-07-24T08:44:20;98460.66;;;35.87;54.55
72423;BME280;60413;55.658;37.498;2022-07-24T08:46:46;98461.66;;;35.57;56.58
72423;BME280;60413;55.658;37.498;2022-07-24T08:49:15;98449.19;;;35.72;54.39
72423;BME280;60413;55.658;37.498;2022-07-24T08:51:43;98451.13;;;35.15;57.33
72423;BME280;60413;55.658;37.498;2022-07-24T08:54:10;98441.22;;;34.54;58.34
72423;BME280;60413;55.658;37.498;2022-07-24T08:56:43;98460.22;;;34.88;57.17
72423;BME280;60413;55.658;37.498;2022-07-24T08:59:16;98435.97;;;34.40;57.71
72423;BME280;60413;55.658;37.498;2022-07-24T09:01:43;98440.81;;;34.56;57.72
72423;BME280;60413;55.658;37.498;2022-07-24T09:04:32;98471.47;;;35.14;56.22
72423;BME280;60413;55.658;37.498;2022-07-24T09:06:59;98475.28;;;35.20;56.66
72423;BME280;60413;55.658;37.498;2022-07-24T09:09:43;98424.41;;;34.99;55.46
72423;BME280;60413;55.658;37.498;2022-07-24T09:12:17;98477.59;;;35.22;56.86
72423;BME280;60413;55.658;37.498;2022-07-24T09:14:51;98438.00;;;34.36;59.40
72423;BME280;60413;55.658;37.498;2022-07-24T09:17:27;98417.50;;;33.96;58.46
72423;BME280;60413;55.658;37.498;2022-07-24T09:20:14;98434.75;;;34.17;59.24
72423;BME280;60413;55.658;37.498;2022-07-24T09:22:42;98435.56;;;34.41;57.89
72423;BME280;60413;55.658;37.498;2022-07-24T09:25:09;98459.41;;;34.64;57.44
72423;BME280;60413;55.658;37.498;2022-07-24T09:27:40;98413.53;;;33.39;62.92
72423;BME280;60413;55.658;37.498;2022-07-24T09:30:07;98439.97;;;32.74;66.33
72423;BME280;60413;55.658;37.498;2022-07-24T09:32:34;98414.94;;;32.34;72.97
72423;BME280;60413;55.658;37.498;2022-07-24T09:35:02;98396.38;;;32.66;68.06
72423;BME280;60413;55.658;37.498;2022-07-24T09:37:31;98455.25;;;33.44;67.76
72423;BME280;60413;55.658;37.498;2022-07-24T09:40:10;98409.53;;;33.17;68.82
72423;BME280;60413;55.658;37.498;2022-07-24T09:43:20;98466.16;;;33.78;69.98
72423;BME280;60413;55.658;37.498;2022-07-24T09:46:09;98443.31;;;33.61;66.96
72423;BME280;60413;55.658;37.498;2022-07-24T09:48:51;98465.44;;;33.74;67.74
72423;BME280;60413;55.658;37.498;2022-07-24T09:51:45;98446.50;;;33.25;71.30
72423;BME280;60413;55.658;37.498;2022-07-24T09:54:35;98401.06;;;33.04;71.94
72423;BME280;60413;55.658;37.498;2022-07-24T09:57:29;98457.72;;;33.31;72.17
72423;BME280;60413;55.658;37.498;2022-07-24T10:00:13;98405.78;;;32.06;76.35
72423;BME280;60413;55.658;37.498;2022-07-24T10:02:45;98444.50;;;31.75;78.08
72423;BME280;60413;55.658;37.498;2022-07-24T10:05:12;98445.53;;;30.82;85.93
72423;BME280;60413;55.658;37.498;2022-07-24T10:07:42;98410.97;;;30.36;92.72
72423;BME280;60413;55.658;37.498;2022-07-24T10:10:18;98426.53;;;30.57;90.45
72423;BME280;60413;55.658;37.498;2022-07-24T10:12:45;98420.66;;;30.30;92.66
72423;BME280;60413;55.658;37.498;2022-07-24T10:15:37;98457.56;;;30.35;99.62
72423;BME280;60413;55.658;37.498;2022-07-24T10:18:51;98430.75;;;30.29;95.50
72423;BME280;60413;55.658;37.498;2022-07-24T10:21:25;98393.09;;;30.71;93.46
72423;BME280;60413;55.658;37.498;2022-07-24T10:30:03;98433.84;;;30.85;90.42
72423;BME280;60413;55.658;37.498;2022-07-24T10:32:31;98442.03;;;30.89;87.91
72423;BME280;60413;55.658;37.498;2022-07-24T10:37:46;98396.56;;;30.75;90.28
72423;BME280;60413;55.658;37.498;2022-07-24T10:56:19;98419.31;;;31.53;86.12
72423;BME280;60413;55.658;37.498;2022-07-24T10:58:57;98371.28;;;30.85;84.68
72423;BME280;60413;55.658;37.498;2022-07-24T11:01:41;98404.78;;;30.39;86.13
72423;BME280;60413;55.658;37.498;2022-07-24T11:06:52;98396.97;;;30.66;90.99
72423;BME280;60413;55.658;37.498;2022-07-24T11:09:21;98414.03;;;31.03;91.61
72423;BME280;60413;55.658;37.498;2022-07-24T11:17:38;98393.84;;;30.28;91.45
72423;BME280;60413;55.658;37.498;2022-07-24T11:20:09;98379.50;;;30.24;91.27
72423;BME280;60413;55.658;37.498;2022-07-24T11:22:46;98345.75;;;30.40;90.15
72423;BME280;60413;55.658;37.498;2022-07-24T11:27:50;98355.75;;;30.79;86.91
72423;BME280;60413;55.658;37.498;2022-07-24T11:30:18;98335.59;;;30.69;88.05
72423;BME280;60413;55.658;37.498;2022-07-24T11:32:45;98349.88;;;31.02;85.46
72423;BME280;60413;55.658;37.498;2022-07-24T11:35:13;98326.97;;;30.89;84.46
72423;BME280;60413;55.658;37.498;2022-07-24T11:37:43;98379.44;;;31.00;82.84
72423;BME280;60413;55.658;37.498;2022-07-24T11:40:15;98360.81;;;30.84;84.03
72423;BME280;60413;55.658;37.498;2022-07-24T11:42:41;98341.44;;;30.64;81.20
72423;BME280;60413;55.658;37.498;2022-07-24T11:45:10;98353.44;;;30.74;80.75
72423;BME280;60413;55.658;37.498;2022-07-24T11:47:37;98338.34;;;30.08;87.20
72423;BME280;60413;55.658;37.498;2022-07-24T11:50:05;98365.53;;;30.04;91.74
72423;BME280;60413;55.658;37.498;2022-07-24T11:52:37;98352.69;;;30.30;86.88
72423;BME280;60413;55.658;37.498;2022-07-24T11:55:11;98357.38;;;30.01;93.88
72423;BME280;60413;55.658;37.498;2022-07-24T11:57:46;98350.75;;;29.91;92.86
72423;BME280;60413;55.658;37.498;2022-07-24T12:00:15;98331.31;;;29.71;92.17
72423;BME280;60413;55.658;37.498;2022-07-24T12:02:46;98329.81;;;30.06;93.60
72423;BME280;60413;55.658;37.498;2022-07-24T12:05:12;98345.31;;;30.59;86.31
72423;BME280;60413;55.658;37.498;2022-07-24T12:07:38;98336.41;;;30.16;89.05
72423;BME280;60413;55.658;37.498;2022-07-24T12:10:07;98323.16;;;29.74;91.98
72423;BME280;60413;55.658;37.498;2022-07-24T12:12:37;98301.28;;;29.13;98.40
72423;BME280;60413;55.658;37.498;2022-07-24T12:15:05;98355.31;;;29.51;100.00
72423;BME280;60413;55.658;37.498;2022-07-24T12:17:34;98295.16;;;29.31;100.00
72423;BME280;60413;55.658;37.498;2022-07-24T12:20:02;98280.84;;;29.37;100.00
72423;BME280;60413;55.658;37.498;2022-07-24T12:22:32;98316.94;;;29.60;96.98
72423;BME280;60413;55.658;37.498;2022-07-24T12:25:03;98275.81;;;29.61;98.96
72423;BME280;60413;55.658;37.498;2022-07-24T12:27:42;98312.34;;;30.21;93.20
72423;BME280;60413;55.658;37.498;2022-07-24T12:30:26;98326.31;;;30.48;90.55
72423;BME280;60413;55.658;37.498;2022-07-24T12:32:59;98327.06;;;30.45;87.54
72423;BME280;60413;55.658;37.498;2022-07-24T12:35:26;98306.13;;;30.28;88.38
72423;BME280;60413;55.658;37.498;2022-07-24T12:37:53;98281.66;;;30.42;86.22
72423;BME280;60413;55.658;37.498;2022-07-24T12:40:34;98270.03;;;29.91;91.48
72423;BME280;60413;55.658;37.498;2022-07-24T12:45:29;98284.41;;;29.88;90.34
72423;BME280;60413;55.658;37.498;2022-07-24T12:48:20;98301.88;;;30.13;90.70
72423;BME280;60413;55.658;37.498;2022-07-24T12:51:10;98283.63;;;29.88;92.23
72423;BME280;60413;55.658;37.498;2022-07-24T12:53:43;98255.63;;;29.59;91.73
72423;BME280;60413;55.658;37.498;2022-07-24T12:56:16;98249.78;;;29.31;94.17
72423;BME280;60413;55.658;37.498;2022-07-24T12:59:02;98284.38;;;29.70;94.36
72423;BME280;60413;55.658;37.498;2022-07-24T13:01:48;98293.69;;;29.69;94.53
72423;BME280;60413;55.658;37.498;2022-07-24T13:04:16;98310.78;;;29.88;94.60
72423;BME280;60413;55.658;37.498;2022-07-24T13:06:51;98279.75;;;29.89;94.45
72423;BME280;60413;55.658;37.498;2022-07-24T13:09:23;98244.44;;;29.82;92.66
72423;BME280;60413;55.658;37.498;2022-07-24T13:11:51;98269.66;;;30.07;93.88
72423;BME280;60413;55.658;37.498;2022-07-24T13:14:19;98299.53;;;30.51;92.41
72423;BME280;60413;55.658;37.498;2022-07-24T13:16:50;98232.41;;;30.04;89.97
72423;BME280;60413;55.658;37.498;2022-07-24T13:19:17;98240.13;;;30.13;90.25
72423;BME280;60413;55.658;37.498;2022-07-24T13:21:44;98282.84;;;30.38;90.13
72423;BME280;60413;55.658;37.498;2022-07-24T13:24:12;98275.06;;;30.22;88.47
72423;BME280;60413;55.658;37.498;2022-07-24T13:26:40;98247.16;;;29.89;89.29
72423;BME280;60413;55.658;37.498;2022-07-24T13:29:06;98243.66;;;29.88;89.84
72423;BME280;60413;55.658;37.498;2022-07-24T13:31:33;98253.34;;;30.00;89.12
72423;BME280;60413;55.658;37.498;2022-07-24T13:34:07;98244.03;;;29.72;92.85
72423;BME280;60413;55.658;37.498;2022-07-24T13:36:38;98245.63;;;29.81;95.53
72423;BME280;60413;55.658;37.498;2022-07-24T13:39:07;98232.81;;;29.78;94.27
72423;BME280;60413;55.658;37.498;2022-07-24T13:41:34;98238.59;;;29.69;94.96